createdAt,value
2022-09-28T00:01:28.045Z,3.40
2022-09-28T00:04:16.184Z,3.75
2022-09-28T00:07:04.334Z,3.47
2022-09-28T00:09:52.530Z,3.90
2022-09-28T00:12:40.706Z,3.65
2022-09-28T00:15:29.218Z,3.92
2022-09-28T00:18:18.728Z,3.78
2022-09-28T00:21:08.714Z,4.60
2022-09-28T00:24:15.163Z,3.83
2022-09-28T00:27:04.181Z,4.70
2022-09-28T00:29:52.307Z,4.35
2022-09-28T00:32:40.841Z,4.30
2022-09-28T00:35:30.317Z,4.97
2022-09-28T00:38:20.217Z,4.93
2022-09-28T00:41:08.421Z,5.57
2022-09-28T00:44:38.302Z,5.55
2022-09-28T00:47:42.844Z,5.30
2022-09-28T00:50:36.387Z,6.22
2022-09-28T00:53:27.735Z,5.93
2022-09-28T00:56:19.711Z,6.38
2022-09-28T00:59:09.837Z,6.63
2022-09-28T01:01:58.066Z,7.07
2022-09-28T01:04:46.316Z,6.95
2022-09-28T01:07:36.579Z,7.18
2022-09-28T01:10:24.848Z,6.80
2022-09-28T01:13:13.862Z,7.03
2022-09-28T01:16:20.611Z,7.20
2022-09-28T01:19:25.426Z,7.55
2022-09-28T01:22:28.197Z,7.75
2022-09-28T01:25:27.933Z,7.72
2022-09-28T01:28:20.198Z,8.18
2022-09-28T01:31:12.561Z,8.80
2022-09-28T01:34:06.318Z,8.20
2022-09-28T01:36:57.081Z,8.38
2022-09-28T01:39:49.710Z,8.20
2022-09-28T01:42:40.659Z,8.15
2022-09-28T01:45:34.231Z,8.38
2022-09-28T01:48:27.449Z,8.90
2022-09-28T01:51:20.509Z,8.43
2022-09-28T01:54:13.047Z,7.35
2022-09-28T01:57:08.148Z,8.10
2022-09-28T02:00:02.241Z,9.05
2022-09-28T02:02:56.650Z,8.98
2022-09-28T02:05:49.929Z,8.13
2022-09-28T02:08:44.380Z,8.57
2022-09-28T02:11:37.342Z,7.82
2022-09-28T02:14:27.150Z,8.70
2022-09-28T02:17:16.210Z,8.73
2022-09-28T02:20:07.465Z,8.75
2022-09-28T02:22:57.639Z,8.85
2022-09-28T02:25:52.594Z,9.27
2022-09-28T02:28:40.800Z,8.68
2022-09-28T02:31:29.302Z,9.43
2022-09-28T02:34:17.637Z,9.18
2022-09-28T02:37:07.201Z,9.20
2022-09-28T02:39:55.445Z,8.70
2022-09-28T02:42:54.252Z,9.00
2022-09-28T02:46:02.112Z,8.73
2022-09-28T02:49:17.384Z,8.88
2022-09-28T02:52:25.076Z,8.32
2022-09-28T02:55:24.955Z,8.65
2022-09-28T02:58:22.573Z,8.48
2022-09-28T03:01:21.602Z,8.52
2022-09-28T03:04:19.766Z,8.70
2022-09-28T03:07:12.048Z,9.30
2022-09-28T03:10:08.508Z,8.43
2022-09-28T03:12:58.025Z,8.77
2022-09-28T03:15:48.871Z,9.30
2022-09-28T03:18:37.313Z,9.32
2022-09-28T03:21:25.570Z,9.25
2022-09-28T03:24:13.704Z,9.40
2022-09-28T03:27:03.195Z,8.60
2022-09-28T03:29:51.314Z,10.02
2022-09-28T03:32:39.919Z,9.15
2022-09-28T03:35:28.310Z,9.60
2022-09-28T03:38:16.800Z,9.73
2022-09-28T03:41:05.239Z,10.32
2022-09-28T03:43:54.913Z,8.85
2022-09-28T03:46:43.044Z,8.65
2022-09-28T03:49:31.194Z,9.27
2022-09-28T03:52:19.361Z,8.10
2022-09-28T03:55:08.006Z,9.23
2022-09-28T03:57:56.661Z,9.07
2022-09-28T04:00:46.195Z,8.73
2022-09-28T04:03:34.485Z,8.50
2022-09-28T04:06:23.053Z,9.27
2022-09-28T04:09:11.244Z,9.88
2022-09-28T04:12:04.187Z,9.73
2022-09-28T04:14:52.786Z,9.43
2022-09-28T04:17:43.066Z,9.57
2022-09-28T04:20:31.194Z,9.43
2022-09-28T04:23:20.458Z,8.85
2022-09-28T04:26:12.681Z,8.88
2022-09-28T04:29:18.199Z,9.18
2022-09-28T04:32:06.840Z,9.52
2022-09-28T04:34:56.376Z,8.70
2022-09-28T04:37:44.535Z,9.50
2022-09-28T04:40:32.734Z,9.10
2022-09-28T04:43:20.936Z,10.10
2022-09-28T04:46:09.189Z,9.63
2022-09-28T04:48:57.401Z,9.00
2022-09-28T04:51:47.036Z,9.13
2022-09-28T04:54:35.226Z,11.38
2022-09-28T04:57:23.554Z,10.55
2022-09-28T05:00:13.701Z,12.30
2022-09-28T05:03:01.936Z,9.80
2022-09-28T05:05:50.348Z,9.73
2022-09-28T05:08:39.890Z,9.30
2022-09-28T05:11:28.380Z,10.25
2022-09-28T05:14:16.753Z,10.23
2022-09-28T05:17:05.026Z,9.68
2022-09-28T05:19:53.192Z,9.73
2022-09-28T05:22:41.316Z,9.30
2022-09-28T05:25:30.812Z,9.98
2022-09-28T05:28:24.850Z,9.82
2022-09-28T05:31:12.989Z,9.32
2022-09-28T05:34:01.524Z,9.27
2022-09-28T05:36:49.709Z,10.52
2022-09-28T05:39:37.846Z,10.10
2022-09-28T05:42:27.299Z,9.48
2022-09-28T05:45:15.937Z,9.55
2022-09-28T05:48:04.123Z,9.50
2022-09-28T05:50:52.747Z,10.07
2022-09-28T05:53:41.031Z,10.77
2022-09-28T05:56:31.637Z,10.00
2022-09-28T05:59:21.122Z,10.50
2022-09-28T06:02:11.176Z,10.57
2022-09-28T06:04:59.688Z,10.00
2022-09-28T06:07:47.858Z,10.32
2022-09-28T06:10:36.222Z,10.35
2022-09-28T06:13:24.398Z,10.20
2022-09-28T06:16:17.508Z,9.73
2022-09-28T06:19:05.714Z,8.63
2022-09-28T06:21:54.050Z,9.45
2022-09-28T06:24:42.208Z,9.95
2022-09-28T06:27:30.388Z,11.18
2022-09-28T06:30:18.747Z,11.07
2022-09-28T06:33:11.400Z,10.07
2022-09-28T06:36:00.949Z,9.43
2022-09-28T06:38:49.188Z,9.45
2022-09-28T06:41:37.374Z,9.75
2022-09-28T06:44:25.642Z,9.23
2022-09-28T06:47:14.586Z,8.35
2022-09-28T06:50:04.344Z,7.80
2022-09-28T06:52:53.998Z,8.75
2022-09-28T06:55:43.539Z,8.23
2022-09-28T06:58:32.292Z,8.27
2022-09-28T07:01:20.979Z,10.32
2022-09-28T07:04:09.160Z,9.65
2022-09-28T07:06:59.116Z,9.57
2022-09-28T07:09:50.429Z,8.40
2022-09-28T07:12:40.742Z,7.80
2022-09-28T07:15:29.462Z,7.60
2022-09-28T07:18:17.906Z,7.72
2022-09-28T07:21:08.593Z,7.13
2022-09-28T07:23:59.991Z,6.57
2022-09-28T07:26:48.120Z,6.35
2022-09-28T07:29:36.368Z,6.15
2022-09-28T07:32:24.719Z,6.88
2022-09-28T07:35:12.925Z,5.72
2022-09-28T07:38:02.542Z,5.85
2022-09-28T07:41:09.460Z,5.78
2022-09-28T07:43:58.995Z,5.35
2022-09-28T07:46:47.249Z,5.78
2022-09-28T07:49:35.370Z,5.70
2022-09-28T07:52:26.179Z,4.95
2022-09-28T07:55:14.693Z,5.35
2022-09-28T07:58:04.207Z,5.57
2022-09-28T08:00:52.591Z,4.95
2022-09-28T08:03:40.819Z,4.65
2022-09-28T08:06:31.364Z,5.30
2022-09-28T08:09:19.654Z,5.00
2022-09-28T08:12:07.846Z,5.13
2022-09-28T08:14:57.439Z,3.97
2022-09-28T08:17:48.198Z,4.45
2022-09-28T08:20:54.236Z,4.50
2022-09-28T08:23:42.447Z,4.32
2022-09-28T08:26:30.652Z,4.40
2022-09-28T08:29:18.801Z,4.40
2022-09-28T08:32:09.130Z,4.57
2022-09-28T08:34:57.280Z,4.32
2022-09-28T08:37:55.486Z,4.05
2022-09-28T08:40:53.206Z,3.60
2022-09-28T08:43:58.318Z,3.15
2022-09-28T08:46:50.215Z,3.60
2022-09-28T08:49:44.966Z,3.30
2022-09-28T08:52:38.072Z,2.85
2022-09-28T08:55:31.422Z,2.90
2022-09-28T08:58:24.357Z,3.08
2022-09-28T09:01:16.475Z,3.10
2022-09-28T09:04:06.620Z,3.42
2022-09-28T09:07:11.925Z,3.00
2022-09-28T09:10:11.755Z,2.95
2022-09-28T09:13:12.466Z,2.83
2022-09-28T09:16:07.503Z,2.88
2022-09-28T09:19:02.005Z,2.75
2022-09-28T09:21:59.833Z,2.70
2022-09-28T09:24:55.872Z,3.17
2022-09-28T09:27:56.667Z,3.50
2022-09-28T09:30:53.157Z,3.90
2022-09-28T09:33:58.476Z,3.58
2022-09-28T09:37:05.197Z,5.35
2022-09-28T09:40:11.992Z,7.40
2022-09-28T09:43:29.353Z,6.28
2022-09-28T09:46:23.705Z,6.70
2022-09-28T09:49:16.090Z,6.40
2022-09-28T09:52:11.132Z,5.70
2022-09-28T09:55:03.998Z,5.00
2022-09-28T09:57:56.594Z,5.85
2022-09-28T10:00:46.617Z,6.65
2022-09-28T10:03:37.653Z,5.07
2022-09-28T10:09:24.451Z,5.72
2022-09-28T10:12:19.830Z,6.70
2022-09-28T10:15:09.273Z,9.32
2022-09-28T10:18:00.854Z,12.18
2022-09-28T10:20:49.891Z,19.08
2022-09-28T10:23:38.855Z,11.68
2022-09-28T10:26:31.617Z,7.57
2022-09-28T10:29:24.977Z,4.57
2022-09-28T10:32:22.105Z,3.67
2022-09-28T10:35:23.715Z,2.83
2022-09-28T10:38:17.951Z,2.80
2022-09-28T10:41:12.236Z,2.72
2022-09-28T10:44:11.111Z,2.58
2022-09-28T10:47:03.007Z,2.17
2022-09-28T10:49:52.615Z,2.45
2022-09-28T10:52:44.923Z,2.42
2022-09-28T10:55:36.883Z,2.35
2022-09-28T10:58:28.788Z,2.30
2022-09-28T11:01:20.591Z,2.33
2022-09-28T11:04:21.446Z,2.65
2022-09-28T11:07:18.801Z,3.17
2022-09-28T11:10:17.688Z,2.80
2022-09-28T11:13:10.550Z,4.25
2022-09-28T11:15:59.425Z,3.47
2022-09-28T11:18:47.813Z,2.80
2022-09-28T11:21:46.000Z,5.32
2022-09-28T11:24:34.372Z,2.95
2022-09-28T11:27:26.035Z,3.22
2022-09-28T11:30:24.699Z,6.20
2022-09-28T11:33:19.220Z,3.50
2022-09-28T11:36:23.879Z,2.97
2022-09-28T11:39:22.398Z,3.67
2022-09-28T11:42:21.393Z,3.92
2022-09-28T11:45:27.500Z,5.93
2022-09-28T11:48:19.131Z,7.75
2022-09-28T11:51:12.346Z,7.10
2022-09-28T11:54:10.497Z,3.67
2022-09-28T11:57:02.317Z,2.50
2022-09-28T11:59:59.407Z,2.25
2022-09-28T12:02:53.065Z,2.97
2022-09-28T12:05:45.865Z,3.45
2022-09-28T12:08:37.564Z,1.55
2022-09-28T12:11:32.516Z,1.50
2022-09-28T12:14:27.309Z,1.40
2022-09-28T12:17:22.758Z,1.60
2022-09-28T12:20:19.892Z,2.10
2022-09-28T12:23:14.085Z,2.00
2022-09-28T12:26:05.632Z,1.75
2022-09-28T12:28:58.533Z,1.27
2022-09-28T12:31:57.775Z,1.80
2022-09-28T12:34:45.961Z,1.75
2022-09-28T12:37:50.579Z,1.33
2022-09-28T12:40:53.007Z,1.58
2022-09-28T12:44:07.359Z,0.40
2022-09-28T12:47:14.719Z,0.40
2022-09-28T12:53:56.258Z,0.50
2022-09-28T12:56:53.650Z,0.75
2022-09-28T12:59:48.774Z,0.90
2022-09-28T13:03:07.183Z,1.00
2022-09-28T13:06:25.731Z,0.70
2022-09-28T13:09:21.629Z,0.80
2022-09-28T13:12:24.395Z,0.70
2022-09-28T13:15:27.802Z,0.90
2022-09-28T13:18:27.462Z,0.90
2022-09-28T13:21:28.310Z,0.90
2022-09-28T13:24:33.522Z,0.77
2022-09-28T13:27:29.948Z,0.70
2022-09-28T13:30:19.578Z,26.98
2022-09-28T13:33:11.771Z,2.00
2022-09-28T13:36:03.091Z,4.13
2022-09-28T13:38:52.148Z,1.02
2022-09-28T13:41:41.055Z,1.08
2022-09-28T13:44:52.318Z,0.90
2022-09-28T13:50:46.732Z,2.35
2022-09-28T13:53:48.181Z,1.13
2022-09-28T13:56:44.188Z,1.10
2022-09-28T13:59:35.524Z,0.50
2022-09-28T14:02:33.740Z,0.55
2022-09-28T14:05:47.883Z,0.50
2022-09-28T14:08:47.328Z,0.80
2022-09-28T14:11:45.114Z,0.63
2022-09-28T14:14:48.671Z,0.80
2022-09-28T14:17:53.959Z,0.90
2022-09-28T14:20:51.193Z,1.23
2022-09-28T14:24:06.609Z,3.30
2022-09-28T14:27:13.325Z,2.22
2022-09-28T14:30:21.672Z,1.50
2022-09-28T14:33:27.502Z,1.20
2022-09-28T14:36:47.371Z,1.25
2022-09-28T14:39:56.741Z,1.20
2022-09-28T14:43:24.058Z,1.50
2022-09-28T14:46:31.954Z,1.42
2022-09-28T14:50:00.443Z,2.00
2022-09-28T14:52:52.363Z,1.80
2022-09-28T14:55:50.400Z,1.83
2022-09-28T14:58:39.045Z,1.88
2022-09-28T15:01:27.582Z,2.05
2022-09-28T15:04:16.322Z,1.92
2022-09-28T15:07:05.303Z,2.30
2022-09-28T15:09:55.133Z,2.03
2022-09-28T15:12:44.931Z,2.30
2022-09-28T15:15:36.417Z,2.08
2022-09-28T15:19:01.129Z,2.33
2022-09-28T15:21:51.147Z,2.30
2022-09-28T15:24:40.253Z,2.03
2022-09-28T15:27:35.949Z,2.10
2022-09-28T15:30:29.083Z,4.25
2022-09-28T15:33:45.768Z,8.20
2022-09-28T15:36:38.253Z,5.80
2022-09-28T15:39:34.036Z,4.28
2022-09-28T15:42:23.637Z,3.53
2022-09-28T15:45:25.501Z,2.90
2022-09-28T15:48:27.270Z,3.10
2022-09-28T15:51:15.557Z,3.95
2022-09-28T15:54:11.040Z,3.58
2022-09-28T15:57:02.675Z,5.32
2022-09-28T15:59:56.929Z,4.85
2022-09-28T16:03:00.409Z,4.38
2022-09-28T16:05:52.078Z,5.20
2022-09-28T16:08:42.776Z,4.15
2022-09-28T16:11:37.948Z,2.80
2022-09-28T16:14:28.082Z,2.88
2022-09-28T16:17:20.766Z,2.50
2022-09-28T16:20:23.211Z,2.15
2022-09-28T16:23:21.230Z,0.80
2022-09-28T16:26:18.399Z,0.80
2022-09-28T16:29:25.803Z,1.00
2022-09-28T16:32:38.226Z,1.10
2022-09-28T16:35:29.769Z,1.15
2022-09-28T16:38:20.489Z,1.10
2022-09-28T16:41:10.043Z,1.10
2022-09-28T16:44:00.871Z,1.63
2022-09-28T16:46:49.080Z,1.70
2022-09-28T16:49:40.835Z,1.52
2022-09-28T16:52:42.998Z,2.55
2022-09-28T16:55:41.129Z,2.13
2022-09-28T16:58:31.341Z,2.22
2022-09-28T17:01:19.565Z,2.25
2022-09-28T17:04:07.808Z,2.30
2022-09-28T17:06:58.371Z,2.38
2022-09-28T17:09:46.661Z,1.70
2022-09-28T17:12:36.153Z,2.60
2022-09-28T17:15:25.924Z,2.25
2022-09-28T17:18:15.277Z,1.85
2022-09-28T17:21:04.777Z,2.50
2022-09-28T17:23:52.969Z,2.47
2022-09-28T17:26:43.761Z,2.22
2022-09-28T17:29:33.614Z,2.10
2022-09-28T17:32:21.744Z,2.40
2022-09-28T17:35:24.033Z,2.50
2022-09-28T17:38:13.671Z,2.13
2022-09-28T17:41:01.904Z,2.30
2022-09-28T17:43:50.642Z,2.80
2022-09-28T17:46:45.898Z,2.60
2022-09-28T17:49:34.202Z,2.60
2022-09-28T17:52:22.371Z,2.40
2022-09-28T17:55:10.977Z,2.75
2022-09-28T17:58:01.033Z,2.45
2022-09-28T18:00:51.189Z,2.88
2022-09-28T18:03:41.098Z,2.70
2022-09-28T18:06:29.394Z,2.50
2022-09-28T18:09:24.811Z,2.80
2022-09-28T18:12:13.806Z,2.65
2022-09-28T18:15:02.137Z,2.63
2022-09-28T18:17:50.453Z,2.20
2022-09-28T18:20:41.380Z,2.75
2022-09-28T18:23:29.698Z,2.70
2022-09-28T18:26:19.570Z,2.35
2022-09-28T18:29:07.913Z,2.63
2022-09-28T18:31:56.157Z,2.10
2022-09-28T18:34:44.369Z,2.15
2022-09-28T18:37:37.400Z,2.83
2022-09-28T18:40:25.687Z,2.42
2022-09-28T18:43:13.972Z,2.50
2022-09-28T18:46:07.172Z,2.40
2022-09-28T18:48:56.030Z,2.70
2022-09-28T18:51:44.289Z,2.40
2022-09-28T18:54:33.895Z,2.30
2022-09-28T18:57:22.602Z,2.10
2022-09-28T19:00:14.717Z,2.40
2022-09-28T19:03:03.094Z,2.30
2022-09-28T19:05:51.457Z,2.67
2022-09-28T19:08:39.843Z,2.47
2022-09-28T19:11:29.670Z,2.40
2022-09-28T19:14:18.269Z,2.75
2022-09-28T19:17:06.792Z,2.92
2022-09-28T19:19:55.064Z,2.92
2022-09-28T19:22:43.307Z,2.70
2022-09-28T19:25:31.550Z,2.72
2022-09-28T19:28:21.209Z,3.40
2022-09-28T19:31:10.104Z,5.53
2022-09-28T19:33:58.562Z,7.50
2022-09-28T19:36:46.820Z,6.25
2022-09-28T19:39:35.398Z,5.35
2022-09-28T19:42:23.666Z,5.50
2022-09-28T19:45:13.281Z,4.32
2022-09-28T19:48:03.102Z,4.20
2022-09-28T19:50:58.539Z,3.70
2022-09-28T19:53:47.900Z,3.83
2022-09-28T19:56:36.287Z,4.20
2022-09-28T19:59:24.576Z,3.72
2022-09-28T20:02:14.338Z,3.97
2022-09-28T20:05:02.644Z,4.40
2022-09-28T20:07:50.920Z,4.50
2022-09-28T20:10:39.670Z,5.15
2022-09-28T20:13:32.457Z,5.13
2022-09-28T20:16:24.454Z,5.20
2022-09-28T20:19:14.383Z,5.60
2022-09-28T20:22:02.952Z,5.22
2022-09-28T20:24:51.493Z,5.55
2022-09-28T20:27:39.797Z,6.18
2022-09-28T20:30:28.064Z,5.68
2022-09-28T20:33:27.497Z,5.88
2022-09-28T20:36:19.942Z,5.82
2022-09-28T20:39:08.336Z,6.32
2022-09-28T20:41:57.632Z,6.32
2022-09-28T20:44:46.157Z,5.70
2022-09-28T20:47:34.598Z,6.15
2022-09-28T20:50:23.673Z,7.57
2022-09-28T20:53:13.385Z,6.82
2022-09-28T20:56:02.607Z,8.68
2022-09-28T20:58:51.722Z,9.77
2022-09-28T21:01:41.318Z,7.90
2022-09-28T21:04:29.722Z,8.30
2022-09-28T21:07:18.115Z,9.90
2022-09-28T21:10:09.552Z,10.18
2022-09-28T21:12:57.818Z,9.93
2022-09-28T21:15:46.195Z,9.70
2022-09-28T21:18:34.503Z,8.40
2022-09-28T21:21:24.145Z,8.30
2022-09-28T21:24:12.560Z,7.75
2022-09-28T21:27:02.332Z,7.43
2022-09-28T21:29:50.649Z,7.03
2022-09-28T21:32:38.953Z,7.78
2022-09-28T21:35:27.251Z,7.00
2022-09-28T21:38:15.600Z,8.00
2022-09-28T21:41:04.267Z,8.68
2022-09-28T21:43:53.979Z,8.15
2022-09-28T21:46:42.420Z,6.95
2022-09-28T21:49:30.746Z,7.32
2022-09-28T21:52:18.974Z,7.10
2022-09-28T21:55:08.270Z,7.35
2022-09-28T21:57:56.495Z,8.10
2022-09-28T22:00:46.329Z,7.53
2022-09-28T22:03:36.056Z,8.02
2022-09-28T22:06:27.832Z,8.20
2022-09-28T22:09:16.113Z,7.07
2022-09-28T22:12:04.446Z,7.82
2022-09-28T22:14:52.696Z,7.57
2022-09-28T22:17:42.325Z,7.63
2022-09-28T22:20:30.582Z,7.53
2022-09-28T22:23:18.855Z,8.13
2022-09-28T22:26:09.737Z,7.57
2022-09-28T22:29:00.161Z,7.63
2022-09-28T22:31:48.760Z,7.32
2022-09-28T22:34:38.409Z,7.68
2022-09-28T22:37:28.035Z,7.30
2022-09-28T22:40:16.613Z,7.78
2022-09-28T22:43:04.950Z,8.70
2022-09-28T22:46:02.572Z,8.70
2022-09-28T22:48:52.601Z,8.55
2022-09-28T22:51:42.240Z,7.72
2022-09-28T22:54:30.569Z,8.30
2022-09-28T22:57:19.303Z,8.18
2022-09-28T23:00:09.139Z,8.65
2022-09-28T23:02:57.585Z,8.70
2022-09-28T23:05:53.983Z,8.65
2022-09-28T23:08:44.458Z,8.98
2022-09-28T23:11:32.848Z,9.25
2022-09-28T23:14:22.617Z,9.02
2022-09-28T23:17:10.899Z,8.85
2022-09-28T23:19:59.148Z,8.90
2022-09-28T23:22:48.205Z,8.32
2022-09-28T23:25:37.844Z,8.98
2022-09-28T23:28:28.268Z,9.85
2022-09-28T23:31:18.658Z,10.25
2022-09-28T23:34:07.839Z,9.98
2022-09-28T23:36:56.798Z,10.38
2022-09-28T23:39:45.063Z,10.18
2022-09-28T23:42:35.601Z,10.32
2022-09-28T23:45:23.839Z,10.20
2022-09-28T23:48:15.020Z,9.73
2022-09-28T23:51:03.498Z,10.18
2022-09-28T23:53:51.769Z,10.63
2022-09-28T23:56:40.034Z,10.95
2022-09-28T23:59:29.650Z,10.65
